• Join FlightAware (Why Join?)
  • Login
  • US Flag 
04:22PM EDT


 

Airport Tracker/Info


-or-


 

Live Flight TrackerFlight Track Log ✈ ATN510 ✈ 22-Aug-2013 ✈ KBWI - BGTL / THU

Flight Track Log - Related Links

Times and Time Zones

All times are in EDT time to prevent confusion due to time zone crossing. See the ATN510 flight status page for this flight to view local times or setup timezone preferences in your user account.

Time Position Orientation Groundspeed Altitude Reporting Facility
EDT Latitude Longitude Course Direction KTS MPH feet Rate Location/Type
02:26AM 39.1590 -76.5050 121° Southeast 273 314 3,600  Level FlightAware
02:26AM 39.1500 -76.4920 132° Southeast 271 312 4,100 2,760 Climbing FlightAware
02:27AM 39.1320 -76.4730 141° Southeast 264 304 5,000 2,580 Climbing FlightAware
02:27AM 39.1130 -76.4540 142° Southeast 265 305 5,900 2,700 Climbing FlightAware
02:27AM 39.0960 -76.4390 146° Southeast 267 307 6,600 2,520 Climbing FlightAware
02:28AM 39.0750 -76.4180 142° Southeast 280 322 7,400 2,340 Climbing FlightAware
02:28AM 39.0609 -76.4034 141° Southeast 277 319 7,900 2,340 Climbing FlightAware ADS-B
02:28AM 39.0523 -76.3871 124° Southeast 291 335 8,300 2,400 Climbing FlightAware ADS-B
02:28AM 39.0503 -76.3805 111° Southeast 297 342 8,500 2,520 Climbing FlightAware ADS-B
02:28AM 39.0492 -76.3754 106° East 299 344 8,600 1,980 Climbing FlightAware ADS-B
02:28AM 39.0478 -76.3661 101° East 301 346 8,800 2,280 Climbing FlightAware ADS-B
02:28AM 39.0459 -76.3396 95° East 302 348 9,400 2,280 Climbing FlightAware ADS-B
02:29AM 39.0440 -76.3000 94° East 309 356 10,200 1,860 Climbing FlightAware ADS-B
02:29AM 39.0442 -76.2866 89° East 317 365 10,300 1,080 Climbing FlightAware ADS-B
02:29AM 39.0450 -76.2800 81° East 324 373 10,400 840 Climbing FlightAware ADS-B
02:29AM 39.0465 -76.2736 73° East 329 379 10,400 660 Level FlightAware ADS-B
02:29AM 39.0495 -76.2646 67° East 334 384 10,500 720 Climbing FlightAware ADS-B
02:29AM 39.0519 -76.2590 61° Northeast 336 387 10,500 840 Level FlightAware ADS-B
02:29AM 39.0554 -76.2526 55° Northeast 340 391 10,600 1,500 Climbing FlightAware ADS-B
02:29AM 39.0602 -76.2453 50° Northeast 344 396 10,700 840 Climbing FlightAware ADS-B
02:29AM 39.0638 -76.2409 44° Northeast 347 399 10,700 720 Level FlightAware ADS-B
02:29AM 39.0691 -76.2355 38° Northeast 349 402 10,800 1,200 Climbing FlightAware ADS-B
02:30AM 39.1107 -76.1984 35° Northeast 374 430 11,400 1,560 Climbing FlightAware ADS-B
02:30AM 39.1555 -76.1594 34° Northeast 388 447 12,400 2,160 Climbing FlightAware ADS-B
02:31AM 39.2015 -76.1184 35° Northeast 392 451 13,600 2,220 Climbing FlightAware ADS-B
02:32AM 39.2466 -76.0779 35° Northeast 399 459 14,700 1,920 Climbing FlightAware ADS-B
02:32AM 39.2932 -76.0358 35° Northeast 407 468 15,600 1,860 Climbing FlightAware ADS-B
02:33AM 39.3401 -75.9933 35° Northeast 413 475 16,600 1,860 Climbing FlightAware ADS-B
02:33AM 39.3875 -75.9505 35° Northeast 420 483 17,500 1,920 Climbing FlightAware ADS-B
02:34AM 39.4356 -75.9070 35° Northeast 420 483 18,600 1,860 Climbing FlightAware ADS-B
02:34AM 39.4844 -75.8630 35° Northeast 426 490 19,400 1,800 Climbing FlightAware ADS-B
02:35AM 39.5337 -75.8183 35° Northeast 430 495 20,400 1,860 Climbing FlightAware ADS-B
02:35AM 39.5832 -75.7734 35° Northeast 429 494 21,300 1,560 Climbing FlightAware ADS-B
02:36AM 39.6327 -75.7285 35° Northeast 436 502 22,000 1,380 Climbing FlightAware ADS-B
02:36AM 39.6830 -75.6821 35° Northeast 442 509 22,700 1,260 Climbing FlightAware ADS-B
02:37AM 39.7339 -75.6348 36° Northeast 449 517 23,300 1,140 Climbing FlightAware ADS-B
02:37AM 39.7855 -75.5870 35° Northeast 457 526 23,900 1,200 Climbing FlightAware ADS-B
02:38AM 39.8381 -75.5383 35° Northeast 460 529 24,500 1,140 Climbing FlightAware ADS-B
02:38AM 39.8910 -75.4893 35° Northeast 466 536 25,100 1,200 Climbing FlightAware ADS-B
02:38AM 39.9257 -75.4572 35° Northeast 470 541 25,500 1,020 Climbing FlightAware ADS-B
02:39AM 39.9408 -75.4446 33° Northeast 471 542 25,600 960 Climbing FlightAware ADS-B
02:39AM 39.9714 -75.4216 30° Northeast 473 544 25,900 1,020 Climbing FlightAware ADS-B
02:39AM 40.0099 -75.3983 25° Northeast 475 547 26,200 960 Climbing FlightAware ADS-B
02:40AM 40.0741 -75.3691 19° North 479 551 26,700 1,080 Climbing FlightAware ADS-B
02:40AM 40.1372 -75.3417 18° North 483 556 27,300 960 Climbing FlightAware ADS-B
02:41AM 40.2019 -75.3137 18° North 487 560 27,700 840 Climbing FlightAware ADS-B
02:41AM 40.2670 -75.2853 18° North 493 567 28,200 840 Climbing FlightAware ADS-B
02:42AM 40.3355 -75.2556 18° North 499 574 28,600 780 Climbing FlightAware ADS-B
02:42AM 40.4018 -75.2264 19° North 505 581 29,000 960 Climbing FlightAware ADS-B
02:43AM 40.4687 -75.1957 19° North 507 583 29,600 1,260 Climbing FlightAware ADS-B
02:43AM 40.5353 -75.1650 19° North 504 580 30,300 1,260 Climbing FlightAware ADS-B
02:44AM 40.6019 -75.1340 19° North 503 579 30,900 1,260 Climbing FlightAware ADS-B
02:44AM 40.6681 -75.1035 19° North 499 574 31,600 1,260 Climbing FlightAware ADS-B
02:45AM 40.7336 -75.0732 19° North 498 573 32,200 1,080 Climbing FlightAware ADS-B
02:45AM 40.7993 -75.0428 19° North 498 573 32,700 660 Climbing FlightAware ADS-B
02:46AM 40.8655 -75.0123 19° North 501 577 32,900 180 Climbing FlightAware ADS-B
02:46AM 40.9325 -74.9812 19° North 503 579 32,900  Level FlightAware ADS-B
02:47AM 40.9982 -74.9506 19° North 503 579 32,900  Level FlightAware ADS-B
02:47AM 41.0647 -74.9195 19° North 502 578 32,900  Level FlightAware ADS-B
02:48AM 41.1311 -74.8884 19° North 500 575 32,900  Level FlightAware ADS-B
02:48AM 41.1973 -74.8574 19° North 500 575 32,900 -120 Level FlightAware ADS-B
02:49AM 41.2632 -74.8265 19° North 498 573 32,800  Descending FlightAware ADS-B
02:49AM 41.3292 -74.7954 19° North 497 572 32,900  Climbing FlightAware ADS-B
02:49AM 41.3510 -74.7857 18° North 495 570 32,800  Descending FlightAware ADS-B
02:50AM 41.3899 -74.7734 13° North 490 564 32,900 120 Climbing FlightAware ADS-B
02:50AM 41.4569 -74.7581 10° North 489 563 32,900 -120 Level FlightAware ADS-B
02:51AM 41.5244 -74.7445 North 487 560 32,800  Descending FlightAware ADS-B
02:51AM 41.5877 -74.7314 North 486 559 32,900 120 Climbing FlightAware ADS-B
02:51AM 41.6088 -74.7255 12° North 487 560 32,900  Level FlightAware ADS-B
02:52AM 41.6624 -74.7009 19° North 492 566 32,900  Level FlightAware ADS-B
02:52AM 41.7070 -74.6766 22° Northeast 492 566 32,900  Level FlightAware ADS-B
02:53AM 41.7697 -74.6374 25° Northeast 492 566 32,900 -180 Level FlightAware ADS-B
02:53AM 41.7961 -74.6198 26° Northeast 493 567 32,800  Descending FlightAware ADS-B
02:53AM 41.8288 -74.5942 30° Northeast 494 568 32,900 120 Climbing FlightAware ADS-B
02:54AM 41.8735 -74.5568 32° Northeast 493 567 32,900  Level FlightAware ADS-B
02:54AM 41.9046 -74.5339 29° Northeast 492 566 32,900 120 Level FlightAware ADS-B
02:54AM 41.9667 -74.4957 25° Northeast 485 558 33,000 60 Climbing FlightAware ADS-B
02:55AM 42.0313 -74.4616 21° North 484 557 33,000  Level FlightAware ADS-B
02:55AM 42.0944 -74.4301 20° North 485 558 33,000  Level FlightAware ADS-B
02:56AM 42.2127 -74.3724 20° North 486 559 33,000  Level FlightAware ADS-B
02:57AM 42.2940 -74.3330 20° North 486 559 33,000  Level FlightAware
02:58AM 42.3760 -74.2930 20° North 485 558 33,000  Level FlightAware
02:58AM 42.4500 -74.2570 20° North 485 558 33,000  Level FlightAware
02:59AM 42.5260 -74.2200 20° North 486 559 33,000  Level FlightAware
02:59AM 42.5950 -74.1860 20° North 486 559 33,000  Level FlightAware
03:00AM 42.6700 -74.1490 20° North 485 558 33,000  Level FlightAware
03:00AM 42.7480 -74.1110 20° North 485 558 33,000  Level FlightAware
03:01AM 42.8210 -74.0740 20° North 485 558 33,000  Level FlightAware
03:02AM 42.8970 -74.0370 20° North 485 558 33,000  Level FlightAware
03:02AM 42.9650 -74.0030 20° North 485 558 33,000  Level FlightAware
03:03AM 43.0380 -73.9660 20° North 484 557 33,000  Level FlightAware
03:03AM 43.1130 -73.9290 20° North 486 559 33,000  Level FlightAware
03:04AM 43.1920 -73.8900 20° North 487 560 33,000  Level FlightAware
03:05AM 43.2650 -73.8530 20° North 486 559 33,000  Level FlightAware
03:05AM 43.3430 -73.8140 20° North 487 560 33,000  Level FlightAware
03:06AM 43.4160 -73.7770 20° North 486 559 33,000  Level FlightAware
03:06AM 43.4840 -73.7420 20° North 487 560 33,000  Level FlightAware
03:07AM 43.5560 -73.7060 20° North 479 551 33,000  Level FlightAware
03:07AM 43.6290 -73.6680 21° North 479 551 33,000  Level FlightAware
03:08AM 43.7030 -73.6310 20° North 478 550 33,000  Level FlightAware
03:09AM 43.7770 -73.5930 20° North 484 557 33,000  Level FlightAware
03:09AM 43.8510 -73.5550 20° North 483 556 33,000  Level FlightAware
03:10AM 43.9250 -73.5170 20° North 484 557 33,000  Level FlightAware
03:10AM 43.9980 -73.4790 21° North 484 557 33,000  Level FlightAware
03:11AM 44.0720 -73.4410 20° North 484 557 33,000  Level FlightAware
03:12AM 44.1460 -73.4030 20° North 479 551 33,000  Level FlightAware
03:12AM 44.2200 -73.3640 21° North 484 557 33,000  Level FlightAware
03:13AM 44.2930 -73.3260 20° North 483 556 33,000  Level FlightAware
03:13AM 44.3670 -73.2880 20° North 483 556 33,000  Level FlightAware
03:14AM 44.4400 -73.2490 21° North 483 556 33,000  Level FlightAware
03:14AM 44.5140 -73.2100 21° North 482 555 33,000  Level FlightAware
03:15AM 44.5870 -73.1720 20° North 483 556 33,000  Level FlightAware
03:16AM 44.6600 -73.1330 21° North 484 557 33,000  Level FlightAware
03:16AM 44.7310 -73.0950 21° North 484 557 33,000  Level FlightAware
03:17AM 44.8070 -73.0550 20° North 484 557 33,000  Level FlightAware
03:17AM 44.8800 -73.0160 21° North 485 558 33,000  Level FlightAware
03:18AM 44.9530 -72.9770 21° North 484 557 33,000  Level FlightAware
03:19AM 45.0260 -72.9380 21° North 484 557 33,000  Level FlightAware
03:19AM 45.1000 -72.8980 21° North 485 558 33,000  Level FlightAware
03:20AM 45.1850 -72.8520 21° North 485 558 33,000  Level FlightAware
03:20AM 45.2580 -72.8130 21° North 479 551 33,000  Level FlightAware
03:21AM 45.3380 -72.7700 21° North 479 551 33,000  Level FlightAware
03:22AM 45.4030 -72.7340 21° North 486 559 33,000  Level FlightAware
03:22AM 45.4770 -72.6940 21° North 479 551 33,000  Level FlightAware
03:23AM 45.5510 -72.6540 21° North 480 552 33,000  Level FlightAware
03:23AM 45.6350 -72.6070 21° North 486 559 33,000  Level FlightAware
03:24AM 45.6980 -72.5730 21° North 485 558 33,000  Level FlightAware
03:24AM 45.7710 -72.5330 21° North 482 555 33,000  Level FlightAware
03:25AM 45.8540 -72.4870 21° North 480 552 33,000  Level FlightAware
03:26AM 45.9160 -72.4520 21° North 470 541 33,000  Level FlightAware
03:26AM 45.9880 -72.4120 21° North 468 539 33,000  Level FlightAware
03:27AM 46.0590 -72.3730 21° North 466 536 33,000  Level FlightAware
03:27AM 46.1390 -72.3280 21° North 463 533 33,000  Level FlightAware
03:28AM 46.2120 -72.2870 21° North 468 539 33,000  Level FlightAware
03:29AM 46.2750 -72.2520 21° North 465 535 33,000  Level FlightAware
03:29AM 46.3520 -72.2080 22° Northeast 464 534 33,000  Level FlightAware
03:30AM 46.4220 -72.1690 21° North 462 532 33,000  Level FlightAware
03:30AM 46.4870 -72.1320 21° North 461 531 33,000  Level FlightAware
03:31AM 46.5570 -72.0920 21° North 458 527 33,000  Level FlightAware
03:32AM 46.6260 -72.0530 21° North 457 526 33,000  Level FlightAware
03:32AM 46.6940 -72.0140 21° North 457 526 33,000  Level FlightAware
03:33AM 46.7670 -71.9720 22° Northeast 456 525 33,000  Level FlightAware
03:33AM 46.8360 -71.9330 21° North 456 525 33,000  Level FlightAware
03:34AM 46.9000 -71.8960 22° Northeast 457 526 33,000  Level FlightAware
03:34AM 46.9680 -71.8560 22° Northeast 458 527 33,000  Level FlightAware
03:35AM 47.0320 -71.8190 22° Northeast 459 528 33,000  Level FlightAware
03:36AM 47.1070 -71.7760 21° North 461 531 33,000  Level FlightAware
03:36AM 47.1800 -71.7330 22° Northeast 464 534 33,000  Level FlightAware
03:37AM 47.2490 -71.6930 21° North 467 537 33,000  Level FlightAware
03:37AM 47.3150 -71.6540 22° Northeast 469 540 33,000  Level FlightAware
03:38AM 47.3850 -71.6130 22° Northeast 472 543 33,000  Level FlightAware
03:38AM 47.4500 -71.5750 22° Northeast 475 547 33,000  Level FlightAware
03:39AM 47.5320 -71.5260 22° Northeast 477 549 33,000  Level FlightAware
03:40AM 47.5990 -71.4860 22° Northeast 479 551 33,000  Level FlightAware
03:40AM 47.6710 -71.4440 21° North 480 552 33,000  Level FlightAware
03:41AM 47.7470 -71.3980 22° Northeast 482 555 33,000  Level FlightAware
03:41AM 47.8090 -71.3610 22° Northeast 483 556 33,000  Level FlightAware
03:42AM 47.8880 -71.3140 22° Northeast 484 557 33,000  Level FlightAware
03:43AM 47.9610 -71.2700 22° Northeast 484 557 33,000  Level FlightAware
03:43AM 48.0370 -71.2240 22° Northeast 483 556 33,000  Level FlightAware
03:44AM 48.1050 -71.1830 22° Northeast 484 557 33,000  Level FlightAware
03:44AM 48.1770 -71.1390 22° Northeast 487 560 33,000  Level FlightAware
03:45AM 48.2550 -71.0910 22° Northeast 487 560 33,000  Level FlightAware
03:46AM 48.3230 -71.0500 22° Northeast 486 559 33,000  Level FlightAware
03:46AM 48.3940 -71.0070 22° Northeast 484 557 33,000  Level FlightAware
03:47AM 48.4570 -70.9680 22° Northeast 483 556 33,000  Level FlightAware
03:47AM 48.5300 -70.9230 22° Northeast 483 556 33,000  Level FlightAware
03:48AM 48.5490 -70.9110 23° Northeast 483 556 33,000  Level FlightAware
03:48AM 48.6730 -70.8340 22° Northeast 484 557 33,000  Level FlightAware
03:49AM 48.7540 -70.7840 22° Northeast 485 558 33,000  Level FlightAware
03:50AM 48.8230 -70.7410 22° Northeast 485 558 33,000  Level FlightAware
03:50AM 48.9000 -70.6920 23° Northeast 484 557 33,000  Level FlightAware
03:51AM 48.9510 -70.6610 22° Northeast 483 556 33,000  Level FlightAware
03:51AM 49.0290 -70.6100 23° Northeast 483 556 33,000  Level FlightAware
03:52AM 49.0920 -70.5700 23° Northeast 483 556 33,000  Level FlightAware
03:53AM 49.1550 -70.5290 23° Northeast 483 556 33,000  Level FlightAware
03:53AM 49.2180 -70.4880 23° Northeast 483 556 33,000  Level FlightAware
03:54AM 49.2810 -70.4470 23° Northeast 483 556 33,000  Level FlightAware
03:54AM 49.3440 -70.4060 23° Northeast 483 556 33,000  Level FlightAware
03:55AM 49.4070 -70.3650 23° Northeast 483 556 33,000  Level FlightAware
03:56AM 49.4690 -70.3240 23° Northeast 483 556 33,000  Level FlightAware
03:56AM 49.6450 -70.2170 21° North 508 585 33,000  Level FlightAware
03:57AM 49.7190 -70.1710 22° Northeast 508 585 33,000  Level FlightAware
03:57AM 49.7860 -70.1290 22° Northeast 508 585 33,000  Level FlightAware
03:58AM 49.8530 -70.0880 22° Northeast 508 585 33,000  Level FlightAware
03:59AM 49.9190 -70.0460 22° Northeast 508 585 33,000  Level FlightAware
03:59AM 49.9860 -70.0040 22° Northeast 508 585 33,000  Level FlightAware
04:00AM 50.0550 -69.9610 22° Northeast 508 585 33,000  Level FlightAware
04:00AM 50.1210 -69.9190 22° Northeast 508 585 33,000  Level FlightAware
04:01AM 50.1900 -69.8760 22° Northeast 508 585 33,000  Level FlightAware
04:02AM 50.2560 -69.8330 23° Northeast 508 585 33,000  Level FlightAware
04:02AM 50.3250 -69.7900 22° Northeast 508 585 33,000  Level FlightAware
04:03AM 50.3930 -69.7470 22° Northeast 508 585 33,000  Level FlightAware
04:03AM 50.4600 -69.7040 22° Northeast 508 585 33,000  Level FlightAware
04:04AM 50.5270 -69.6620 22° Northeast 508 585 33,000  Level FlightAware
04:05AM 50.5950 -69.6180 22° Northeast 508 585 33,000  Level FlightAware
04:05AM 50.6620 -69.5760 22° Northeast 508 585 33,000  Level FlightAware
04:06AM 50.7290 -69.5330 22° Northeast 508 585 33,000  Level FlightAware
04:07AM 51.0500 -69.2333 22° Northeast 510 587 33,000  Level Montreal Center
04:08AM 51.1667 -69.1667 20° North 510 587 33,000  Level Montreal Center
04:09AM 51.3000 -69.0667 25° Northeast 510 587 33,000  Level Montreal Center
04:10AM 51.4500 -68.9667 23° Northeast 510 587 33,000 60 Level Montreal Center
04:11AM 51.5500 -68.8833 27° Northeast 510 587 33,200 660 Climbing Montreal Center
04:12AM 51.7000 -68.7833 22° Northeast 510 587 34,400 900 Climbing Montreal Center
04:13AM 51.8333 -68.6833 25° Northeast 520 598 35,000 300 Climbing Montreal Center
04:14AM 51.9667 -68.5833 25° Northeast 530 610 35,000  Level Montreal Center
04:15AM 52.0833 -68.5000 24° Northeast 520 598 35,000  Level Montreal Center
04:16AM 52.2333 -68.4000 22° Northeast 510 587 35,000  Level Montreal Center
04:17AM 52.3667 -68.2833 28° Northeast 520 598 35,000  Level Montreal Center
04:18AM 52.5167 -68.1833 22° Northeast 540 621 35,000  Level Montreal Center
04:19AM 52.6333 -68.1000 23° Northeast 520 598 35,000  Level Montreal Center
04:20AM 52.7667 -68.0000 24° Northeast 540 621 35,000  Level Montreal Center
04:21AM 52.9167 -67.8833 25° Northeast 540 621 35,000  Level Montreal Center
04:22AM 53.0333 -67.8000 23° Northeast 540 621 35,000  Level Montreal Center
04:23AM 53.1833 -67.6833 25° Northeast 530 610 35,000  Level Montreal Center
04:24AM 53.3167 -67.5833 24° Northeast 550 633 35,000  Level Montreal Center
04:25AM 53.4500 -67.4667 28° Northeast 540 621 35,000  Level Montreal Center
04:26AM 53.5833 -67.3500 27° Northeast 530 610 35,000  Level Montreal Center
04:27AM 53.7333 -67.2333 25° Northeast 530 610 35,000  Level Montreal Center
04:28AM 53.8667 -67.1500 20° North 530 610 35,000  Level Montreal Center
04:29AM 54.0000 -67.0333 27° Northeast 540 621 35,000  Level Montreal Center
04:30AM 54.1333 -66.9167 27° Northeast 540 621 35,000  Level Montreal Center
04:31AM 54.2667 -66.8000 27° Northeast 540 621 35,000  Level Montreal Center
04:32AM 54.4167 -66.7167 18° North 540 621 35,000  Level Montreal Center
04:33AM 54.5500 -66.6000 27° Northeast 540 621 35,000  Level Montreal Center
04:34AM 54.6667 -66.4833 30° Northeast 540 621 35,000  Level Montreal Center
04:35AM 54.8167 -66.3667 24° Northeast 530 610 35,000  Level Montreal Center
04:36AM 54.9667 -66.2667 21° North 550 633 35,000  Level Montreal Center
04:37AM 55.0833 -66.1500 30° Northeast 560 644 35,000  Level Montreal Center
04:38AM 55.2333 -66.0167 27° Northeast 550 633 35,000  Level Montreal Center
04:39AM 55.3667 -65.9000 26° Northeast 550 633 35,000  Level Montreal Center
04:40AM 55.5167 -65.7667 27° Northeast 550 633 35,000  Level Montreal Center
04:41AM 55.6333 -65.6500 29° Northeast 550 633 35,000  Level Montreal Center
04:42AM 55.7833 -65.5167 27° Northeast 550 633 35,000  Level Montreal Center
04:43AM 55.9167 -65.4167 23° Northeast 550 633 35,000  Level Montreal Center
04:44AM 56.0500 -65.3000 26° Northeast 560 644 35,000  Level Montreal Center
04:45AM 56.1833 -65.1667 29° Northeast 550 633 35,000  Level Montreal Center
04:46AM 56.3333 -65.0333 26° Northeast 560 644 35,000  Level Montreal Center
04:47AM 56.4667 -64.9000 29° Northeast 560 644 35,000  Level Montreal Center
04:48AM 56.6167 -64.7667 26° Northeast 560 644 35,000  Level Montreal Center
04:49AM 56.7333 -64.6333 32° Northeast 570 656 35,000  Level Montreal Center
04:50AM 56.9000 -64.5000 24° Northeast 570 656 35,000  Level Montreal Center
04:51AM 57.0333 -64.3500 31° Northeast 570 656 35,000  Level Montreal Center
04:52AM 57.1833 -64.2167 26° Northeast 580 667 35,000  Level Montreal Center
04:53AM 57.3167 -64.0833 28° Northeast 570 656 35,000  Level Montreal Center
04:54AM 57.4500 -63.9500 28° Northeast 570 656 35,000  Level Montreal Center
04:55AM 57.6000 -63.8333 23° Northeast 570 656 35,000  Level Montreal Center
04:56AM 57.7333 -63.6833 31° Northeast 570 656 35,000  Level Montreal Center
04:57AM 57.8833 -63.5500 25° Northeast 560 644 35,000  Level Montreal Center
04:58AM 58.0167 -63.4000 31° Northeast 560 644 35,000  Level Montreal Center
04:59AM 58.1333 -63.2667 31° Northeast 550 633 35,000  Level Montreal Center
05:00AM 58.2833 -63.1167 28° Northeast 550 633 35,000  Level Montreal Center
05:01AM 58.4167 -62.9667 30° Northeast 540 621 35,000 60 Level Montreal Center
05:02AM 58.5500 -62.8500 25° Northeast 530 610 35,200 840 Climbing Montreal Center
05:03AM 58.6833 -62.7000 30° Northeast 530 610 36,700 900 Climbing Montreal Center
05:04AM 58.7833 -62.6000 27° Northeast 510 587 37,000 120 Climbing Montreal Center
05:05AM 58.9167 -62.4500 30° Northeast 490 564 37,000  Level Montreal Center
05:06AM 59.0333 -62.3333 27° Northeast 490 564 37,000  Level Montreal Center
05:07AM 59.1500 -62.2000 30° Northeast 500 575 37,000  Level Montreal Center
05:08AM 59.2833 -62.0833 24° Northeast 500 575 37,000  Level Montreal Center
05:09AM 59.4000 -61.9333 33° Northeast 500 575 37,000 -300 Level Montreal Center
05:10AM 59.5167 -61.7833 33° Northeast 500 575 36,500 -540 Descending Montreal Center
05:11AM 59.6167 -61.6667 31° Northeast 480 552 36,000 -300 Descending Montreal Center
05:12AM 59.7333 -61.5500 27° Northeast 490 564 36,000  Level Montreal Center
05:13AM 59.8667 -61.5000 11° North 490 564 36,000  Level Montreal Center
05:14AM 60.0167 -61.4333 13° North 490 564 36,000  Level Montreal Center
05:15AM 60.1500 -61.3833 11° North 490 564 36,000  Level Montreal Center
05:16AM 60.2667 -61.3167 16° North 490 564 36,000  Level Montreal Center
05:17AM 60.4000 -61.2333 17° North 490 564 36,000  Level Montreal Center
05:18AM 60.5333 -61.2000 North 490 564 36,000 720 Level Montreal Center
05:19AM 60.6667 -61.1500 10° North 490 564 37,500  Climbing Montreal Center
05:20AM 60.8000 -61.0833 14° North 490 564 36,000 -780 Descending Montreal Center
05:21AM 60.9333 -61.0167 14° North 480 552 36,000  Level Montreal Center
05:22AM 61.0500 -60.9667 12° North 480 552 36,000  Level Montreal Center
05:23AM 61.2000 -60.9000 12° North 480 552 36,100 360 Climbing Montreal Center
05:24AM 61.3333 -60.8333 13° North 480 552 36,800 420 Climbing Montreal Center
05:25AM 61.4667 -60.7667 13° North 480 552 37,000 60 Climbing Montreal Center
05:26AM 61.5833 -60.7167 12° North 480 552 37,000  Level Montreal Center
05:27AM 61.7000 -60.6167 22° Northeast 480 552 37,000  Level Montreal Center
05:28AM 61.8333 -60.5833 North 480 552 37,000  Level Montreal Center
05:30AM 62.0833 -60.4667 12° North 400 460 37,000  Level Montreal Center
05:30AM 62.1500 -60.5000 347° North 480 552 37,000  Level Gander Center
05:31AM 62.2833 -60.4667 North 480 552 37,000  Level Gander Center
05:32AM 62.3667 -60.3667 29° Northeast 460 529 37,000  Level Montreal Center
05:33AM 62.4833 -60.3000 15° North 470 541 37,000  Level Montreal Center
05:36AM 62.8667 -60.1500 10° North 470 541 37,000  Level Gander Center
05:37AM 63.0000 -60.1167 North 510 587 37,000  Level Gander Center
05:38AM 63.1333 -60.0333 16° North 490 564 37,000  Level Gander Center
05:39AM 63.2667 -59.9500 16° North 490 564 37,000  Level Gander Center
05:40AM 63.4000 -59.8833 13° North 490 564 37,000  Level Gander Center
05:41AM 63.5333 -59.8000 16° North 490 564 37,000 -660 Level Gander Center
05:42AM 59.7167 -61.6167 12° North 474 545 36,000  Descending ETMS Enhanced Traffic Management System
05:43AM 63.8000 -59.6667 12° North 480 552 37,000 360 Climbing Gander Center
05:44AM 63.9167 -59.6333 North 480 552 37,000  Level Gander Center
05:45AM 64.0500 -59.5000 24° Northeast 480 552 37,000  Level Gander Center
05:46AM 64.1833 -59.4667 North 480 552 37,000  Level Gander Center
05:47AM 64.3167 -59.3833 15° North 480 552 37,000  Level Gander Center
05:48AM 64.4500 -59.3000 15° North 480 552 37,000  Level Gander Center
05:49AM 64.5667 -59.2000 20° North 480 552 37,000  Level Gander Center
05:50AM 64.6833 -59.1667 North 480 552 37,000  Level Gander Center
05:51AM 64.8167 -59.0667 18° North 480 552 37,000  Level Gander Center
05:52AM 64.9500 -59.0167 North 480 552 37,000  Level Gander Center
05:53AM 65.0667 -58.9333 17° North 480 552 37,000  Level Gander Center
05:54AM 65.2000 -58.9167 North 480 552 37,000  Level Gander Center
05:55AM 65.3333 -58.8667 North 480 552 37,000 -660 Level Gander Center
05:56AM 65.0000 -59.0000 North 479 551 36,000  Descending ETMS Enhanced Traffic Management System
05:57AM 65.6000 -58.7667 North 480 552 37,000 360 Climbing Gander Center
05:58AM 65.7167 -58.7167 10° North 480 552 37,000  Level Gander Center
05:59AM 65.8500 -58.6667 North 480 552 37,000  Level Gander Center
06:00AM 65.9833 -58.6500 North 480 552 37,000  Level Gander Center
06:01AM 66.1167 -58.6000 North 480 552 37,000  Level Gander Center
06:02AM 66.2333 -58.5500 10° North 480 552 37,000  Level Gander Center
06:03AM 66.3667 -58.5000 North 470 541 37,000  Level Gander Center
06:04AM 66.5000 -58.4333 11° North 470 541 37,000  Level Gander Center
06:05AM 66.6167 -58.4167 North 470 541 37,000  Level Gander Center
06:06AM 66.7333 -58.3667 10° North 470 541 37,000  Level Gander Center
06:07AM 66.8667 -58.3167 North 470 541 37,000  Level Gander Center
06:08AM 67.0000 -58.2500 11° North 470 541 37,000  Level Gander Center
06:09AM 67.1333 -58.2333 North 470 541 37,000  Level Gander Center
06:10AM 67.2500 -58.1833 North 470 541 37,000  Level Gander Center
06:11AM 67.3667 -58.1333 North 470 541 37,000  Level Gander Center
06:12AM 67.5000 -58.0667 11° North 460 529 37,000  Level Gander Center
06:13AM 67.6167 -58.0167 North 470 541 37,000  Level Gander Center
06:14AM 67.7500 -57.9500 11° North 460 529 37,000  Level Gander Center
06:15AM 67.8833 -57.9333 North 470 541 37,000  Level Gander Center
06:16AM 68.0167 -57.8667 11° North 470 541 37,000  Level Gander Center
06:17AM 68.1167 -57.8167 11° North 470 541 37,000  Level Gander Center
06:18AM 68.2500 -57.7500 10° North 470 541 37,000  Level Gander Center
06:19AM 68.3833 -57.6833 10° North 470 541 37,000  Level Gander Center
06:20AM 68.5000 -57.6667 North 470 541 37,000  Level Gander Center
06:21AM 68.6333 -57.6000 10° North 470 541 37,000  Level Gander Center
06:22AM 68.7500 -57.5333 12° North 470 541 37,000  Level Gander Center
06:23AM 68.8667 -57.4667 12° North 470 541 37,000  Level Gander Center
06:24AM 69.0000 -57.4000 10° North 460 529 37,000  Level Gander Center
06:25AM 69.1333 -57.3833 North 460 529 37,000  Level Gander Center
06:26AM 69.2333 -57.2667 22° Northeast 460 529 37,000  Level Gander Center
06:27AM 69.3667 -57.2500 North 460 529 37,000  Level Gander Center
06:28AM 69.4833 -57.1333 19° North 460 529 37,000  Level Gander Center
06:29AM 69.6167 -57.1167 North 470 541 37,000  Level Gander Center
06:30AM 69.7500 -57.0833 North 460 529 37,000  Level Gander Center
06:31AM 69.8667 -57.0167 11° North 470 541 37,000  Level Gander Center
06:32AM 70.0000 -56.9500 10° North 480 552 37,000  Level Gander Center
06:33AM 70.1167 -56.9167 North 460 529 37,000  Level Gander Center
06:34AM 70.2500 -56.9000 North 460 529 37,000  Level Gander Center
06:35AM 70.3500 -56.8667 North 310 357 37,000  Level Gander Center
06:36AM 70.4667 -56.8500 North 450 518 37,000  Level Gander Center
06:37AM 70.6000 -56.7333 16° North 460 529 37,000  Level Gander Center
06:39AM 70.8263 -57.0422 336° Northwest  Level FlightAware Approximate
06:46AM 71.6483 -58.2324 336° Northwest  Level FlightAware Approximate
06:47AM 71.7651 -58.4109 334° Northwest  Level FlightAware Approximate
06:48AM 71.8817 -58.5915 334° Northwest  Level FlightAware Approximate
06:49AM 71.9982 -58.7745 334° Northwest  Level FlightAware Approximate
06:50AM 72.1145 -58.9597 334° Northwest  Level FlightAware Approximate
06:51AM 72.2306 -59.1473 334° Northwest  Level FlightAware Approximate
06:52AM 72.3465 -59.3373 334° Northwest  Level FlightAware Approximate
06:53AM 72.4622 -59.5297 333° Northwest  Level FlightAware Approximate
06:54AM 72.5778 -59.7245 333° Northwest  Level FlightAware Approximate
06:55AM 72.6931 -59.9219 333° Northwest  Level FlightAware Approximate
06:56AM 72.8083 -60.1219 333° Northwest  Level FlightAware Approximate
06:57AM 72.9233 -60.3244 333° Northwest  Level FlightAware Approximate
06:58AM 73.0380 -60.5297 332° Northwest  Level FlightAware Approximate
06:59AM 73.1526 -60.7376 332° Northwest  Level FlightAware Approximate
07:00AM 73.2669 -60.9483 332° Northwest  Level FlightAware Approximate
07:01AM 73.3810 -61.1618 332° Northwest  Level FlightAware Approximate
07:02AM 73.4949 -61.3782 332° Northwest  Level FlightAware Approximate
07:03AM 73.6086 -61.5975 331° Northwest  Level FlightAware Approximate
07:04AM 73.7221 -61.8197 331° Northwest  Level FlightAware Approximate
07:05AM 73.8353 -62.0450 331° Northwest  Level FlightAware Approximate
07:06AM 73.9482 -62.2734 331° Northwest  Level FlightAware Approximate
07:07AM 74.0610 -62.5050 331° Northwest  Level FlightAware Approximate
07:08AM 74.1734 -62.7397 330° Northwest  Level FlightAware Approximate
07:09AM 74.2857 -62.9777 330° Northwest  Level FlightAware Approximate
07:10AM 74.3976 -63.2191 330° Northwest  Level FlightAware Approximate
07:11AM 74.5095 -63.4631 330° Northwest  Level FlightAware Approximate
07:12AM 74.6211 -63.7098 330° Northwest  Level FlightAware Approximate
07:13AM 74.7325 -63.9601 329° Northwest  Level FlightAware Approximate
07:14AM 74.8436 -64.2140 329° Northwest  Level FlightAware Approximate
07:15AM 74.9542 -64.4723 328° Northwest  Level FlightAware Approximate
07:16AM 75.0644 -64.7361 328° Northwest  Level FlightAware Approximate
07:17AM 75.1742 -65.0037 328° Northwest  Level FlightAware Approximate
07:18AM 75.2837 -65.2751 328° Northwest  Level FlightAware Approximate
07:19AM 75.3928 -65.5506 328° Northwest  Level FlightAware Approximate
07:20AM 75.5017 -65.8301 327° Northwest  Level FlightAware Approximate
07:21AM 75.6102 -66.1138 327° Northwest  Level FlightAware Approximate
07:22AM 75.7183 -66.4016 327° Northwest  Level FlightAware Approximate
07:23AM 75.8261 -66.6937 326° Northwest  Level FlightAware Approximate
07:24AM 75.9336 -66.9903 326° Northwest  Level FlightAware Approximate
07:25AM 76.0407 -67.2913 326° Northwest  Level FlightAware Approximate
07:26AM 76.1474 -67.5968 326° Northwest  Level FlightAware Approximate
07:27AM 76.2537 -67.9070 325° Northwest  Level FlightAware Approximate
07:28AM 76.3596 -68.2219 325° Northwest  Level FlightAware Approximate
07:29AM 76.4651 -68.5416 325° Northwest  Level FlightAware Approximate
07:30AM 76.5167 -68.7000 328° Northwest  Level FlightAware Approximate
07:31AM 76.5314 -68.7032 328° Northwest  Level Estimated
07:32AM 76.5314 -68.7032 328° Northwest  Level Estimated
07:33AM 76.5314 -68.7032 328° Northwest  Level Estimated
07:34AM 76.5314 -68.7032 328° Northwest  Level Estimated
07:35AM 76.5314 -68.7032 328° Northwest  Level Estimated
07:36AM 76.5314 -68.7032 328° Northwest  Level Estimated
07:37AM 76.5314 -68.7032 328° Northwest  Level Estimated
07:38AM 76.5314 -68.7032 328° Northwest  Level Estimated
07:39AM 76.5314 -68.7032 328° Northwest  Level Estimated
07:40AM 76.5314 -68.7032 328° Northwest  Level Estimated
07:41AM 76.5314 -68.7032 328° Northwest  Level Estimated
07:42AM 76.5314 -68.7032 328° Northwest  Level Estimated
07:43AM 76.5314 -68.7032 328° Northwest  Level Estimated
07:44AM 76.5314 -68.7032 328° Northwest  Level Estimated
07:45AM 76.5314 -68.7032 328° Northwest  Level Estimated
07:46AM 76.5314 -68.7032 328° Northwest  Level Estimated
07:47AM 76.5314 -68.7032 328° Northwest  Level Estimated
07:48AM 76.5314 -68.7032 328° Northwest  Level Estimated
07:49AM 76.5314 -68.7032 328° Northwest  Level Estimated
07:50AM 76.5314 -68.7032 328° Northwest  Level Estimated
07:51AM 76.5314 -68.7032 328° Northwest  Level Estimated
07:52AM 76.5314 -68.7032 328° Northwest  Level Estimated
07:53AM 76.5314 -68.7032 328° Northwest  Level Estimated
07:54AM 76.5314 -68.7032 328° Northwest  Level Estimated
07:55AM 76.5314 -68.7032 328° Northwest  Level Estimated
07:56AM 76.5314 -68.7032 328° Northwest  Level Estimated